Time;durP1;ratioP1;P1;durP2;ratioP2;P2;SDS_P1;SDS_P2;PMS_P1;PMS_P2;Temp;Humidity;BMP_temperature;BMP_pressure;BME280_temperature;BME280_humidity;BME280_pressure;Samples;Min_cycle;Max_cycle;Signal;HPM_P1;HPM_P2
2023/06/10 00:01:59;;;;;;;9.93;8.02;;;18.80;88.40;;;;;;5031199;28;20036;-74
2023/06/10 00:04:27;;;;;;;9.38;7.90;;;18.80;88.30;;;;;;5028297;28;20052;-75
2023/06/10 00:06:53;;;;;;;10.60;7.80;;;18.70;88.20;;;;;;5019976;28;20034;-74
2023/06/10 00:09:20;;;;;;;10.77;7.80;;;18.70;88.40;;;;;;5014532;28;20485;-74
2023/06/10 00:11:47;;;;;;;12.30;8.45;;;18.70;88.40;;;;;;5033117;28;20034;-75
2023/06/10 00:14:13;;;;;;;12.35;7.50;;;18.70;88.50;;;;;;5033551;28;20030;-75
2023/06/10 00:16:38;;;;;;;10.25;7.65;;;18.60;88.70;;;;;;5016707;28;20064;-75
2023/06/10 00:19:05;;;;;;;12.18;8.77;;;18.60;88.90;;;;;;5017671;28;20034;-75
2023/06/10 00:21:40;;;;;;;9.27;7.70;;;18.60;89.10;;;;;;5017671;28;20030;-75
2023/06/10 00:24:06;;;;;;;11.38;7.78;;;18.60;89.10;;;;;;5017638;28;20034;-75
2023/06/10 00:26:33;;;;;;;10.52;7.72;;;18.50;89.00;;;;;;5016835;28;20069;-75
2023/06/10 00:28:59;;;;;;;14.50;7.60;;;18.50;89.10;;;;;;5016926;28;20029;-74
2023/06/10 00:31:28;;;;;;;13.18;7.78;;;18.50;89.40;;;;;;5016562;28;20026;-76
2023/06/10 00:33:53;;;;;;;10.40;8.55;;;18.40;89.50;;;;;;5017581;28;20030;-77
2023/06/10 00:36:19;;;;;;;9.73;7.95;;;18.40;89.50;;;;;;5016116;28;20362;-76
2023/06/10 00:38:45;;;;;;;15.50;8.00;;;18.40;89.60;;;;;;5027912;28;20044;-76
2023/06/10 00:41:10;;;;;;;10.40;7.72;;;18.40;89.60;;;;;;5034855;28;20060;-76
2023/06/10 00:43:36;;;;;;;12.85;7.75;;;18.40;89.70;;;;;;5017534;28;20030;-73
2023/06/10 00:46:02;;;;;;;10.02;8.38;;;18.30;90.00;;;;;;5016245;28;20033;-76
2023/06/10 00:48:28;;;;;;;11.27;8.73;;;18.30;90.20;;;;;;5022601;28;20048;-76
2023/06/10 00:50:54;;;;;;;11.32;8.88;;;18.20;90.30;;;;;;5014781;28;20026;-75
2023/06/10 00:53:21;;;;;;;10.65;8.20;;;18.20;90.60;;;;;;5041177;28;20079;-74
2023/06/10 00:55:48;;;;;;;11.43;9.05;;;18.20;90.50;;;;;;5025766;28;20034;-75
2023/06/10 00:58:13;;;;;;;13.02;8.88;;;18.10;90.60;;;;;;5028222;28;20022;-76
2023/06/10 01:00:39;;;;;;;10.60;8.20;;;18.20;90.70;;;;;;5027463;28;20097;-73
2023/06/10 01:03:07;;;;;;;12.50;9.25;;;18.10;90.70;;;;;;5034916;28;20033;-75
2023/06/10 01:05:34;;;;;;;13.57;8.88;;;18.10;90.70;;;;;;5018976;28;20038;-74
2023/06/10 01:08:04;;;;;;;12.13;8.90;;;18.10;90.70;;;;;;5029225;28;20022;-75
2023/06/10 01:11:03;;;;;;;10.85;9.05;;;18.00;90.70;;;;;;5035874;28;20021;-74
2023/06/10 01:13:32;;;;;;;13.27;9.40;;;18.00;91.00;;;;;;5034149;28;20163;-74
2023/06/10 01:15:58;;;;;;;13.27;9.32;;;17.90;91.10;;;;;;5026533;28;20057;-73
2023/06/10 01:18:30;;;;;;;13.15;8.98;;;17.90;91.20;;;;;;5033703;28;20029;-74
2023/06/10 01:20:56;;;;;;;14.00;8.52;;;17.90;91.40;;;;;;5035666;28;20116;-75
2023/06/10 01:23:22;;;;;;;10.38;8.10;;;17.80;91.50;;;;;;5035932;28;20684;-75
2023/06/10 01:25:54;;;;;;;11.27;7.85;;;17.70;91.60;;;;;;5035800;28;20104;-75
2023/06/10 01:28:29;;;;;;;10.82;9.13;;;17.70;91.60;;;;;;5033529;28;20377;-74
2023/06/10 01:31:33;;;;;;;12.15;8.60;;;17.70;91.80;;;;;;5034535;28;20025;-77
2023/06/10 01:34:02;;;;;;;8.32;7.22;;;17.70;92.00;;;;;;5035012;28;20033;-76
2023/06/10 01:36:29;;;;;;;12.73;7.90;;;17.60;92.00;;;;;;5027496;28;20026;-77
2023/06/10 01:38:56;;;;;;;10.23;7.55;;;17.60;91.90;;;;;;5035895;28;20045;-77
2023/06/10 01:41:22;;;;;;;12.02;7.97;;;17.60;91.90;;;;;;5036134;28;20105;-75
2023/06/10 01:43:49;;;;;;;9.88;7.57;;;17.50;92.00;;;;;;5035894;28;20032;-77
2023/06/10 01:46:19;;;;;;;10.25;7.60;;;17.50;92.00;;;;;;5036252;28;20500;-76
2023/06/10 01:48:45;;;;;;;9.88;7.88;;;17.50;92.20;;;;;;5035707;28;20025;-76
2023/06/10 01:51:10;;;;;;;10.52;7.90;;;17.40;92.10;;;;;;5034439;28;20032;-77
2023/06/10 01:53:36;;;;;;;9.77;7.38;;;17.40;92.20;;;;;;5035630;28;20389;-76
2023/06/10 01:56:02;;;;;;;8.77;7.68;;;17.40;92.20;;;;;;5034564;28;20110;-77
2023/06/10 01:58:27;;;;;;;8.00;7.00;;;17.30;92.20;;;;;;5036711;28;20022;-75
2023/06/10 02:00:53;;;;;;;8.27;6.90;;;17.30;92.30;;;;;;5033878;28;20447;-77
2023/06/10 02:03:18;;;;;;;9.18;7.13;;;17.30;92.30;;;;;;5035202;28;20021;-76
2023/06/10 02:05:44;;;;;;;10.70;7.10;;;17.20;92.40;;;;;;5015917;28;20080;-76
2023/06/10 02:08:10;;;;;;;9.38;7.80;;;17.20;92.50;;;;;;5015720;28;20025;-75
2023/06/10 02:10:36;;;;;;;9.27;6.95;;;17.20;92.50;;;;;;5015178;28;20026;-74
2023/06/10 02:13:02;;;;;;;9.55;6.65;;;17.10;92.60;;;;;;5028377;28;20026;-76
2023/06/10 02:15:27;;;;;;;10.73;6.82;;;17.10;92.60;;;;;;5034962;28;20021;-75
2023/06/10 02:17:54;;;;;;;11.88;7.00;;;17.10;92.80;;;;;;5034455;28;20493;-75
2023/06/10 02:20:20;;;;;;;10.20;7.25;;;17.10;93.00;;;;;;5018209;28;20400;-76
2023/06/10 02:22:46;;;;;;;9.07;7.32;;;17.00;93.00;;;;;;5023376;28;20025;-75
2023/06/10 02:25:12;;;;;;;10.75;7.38;;;17.00;93.00;;;;;;5033205;28;20111;-75
2023/06/10 02:27:38;;;;;;;12.02;8.25;;;17.00;93.10;;;;;;5034477;28;20029;-76
2023/06/10 02:30:04;;;;;;;11.48;7.38;;;16.90;93.20;;;;;;5032506;28;20026;-75
2023/06/10 02:32:29;;;;;;;9.65;7.53;;;16.90;93.30;;;;;;5015845;28;20018;-74
2023/06/10 02:34:55;;;;;;;10.02;7.32;;;16.90;93.40;;;;;;5014524;28;20032;-76
2023/06/10 02:37:21;;;;;;;9.07;7.75;;;16.90;93.30;;;;;;5014382;28;20072;-74
2023/06/10 02:39:46;;;;;;;10.18;7.97;;;16.90;93.20;;;;;;5014277;28;20026;-75
2023/06/10 02:42:12;;;;;;;10.80;7.63;;;16.90;93.40;;;;;;5025424;28;20421;-76
2023/06/10 02:44:38;;;;;;;9.63;7.28;;;16.80;93.50;;;;;;5031890;28;20511;-76
2023/06/10 02:47:04;;;;;;;10.40;7.55;;;16.80;93.60;;;;;;5027721;28;20496;-75
2023/06/10 02:49:30;;;;;;;7.70;6.28;;;16.80;93.70;;;;;;5015552;28;20026;-75
2023/06/10 02:51:56;;;;;;;10.65;7.55;;;16.80;93.80;;;;;;5012879;28;20026;-73
2023/06/10 02:54:25;;;;;;;9.65;6.82;;;16.70;93.70;;;;;;5013108;28;20063;-75
2023/06/10 02:56:54;;;;;;;10.05;7.60;;;16.70;93.90;;;;;;5014618;28;20033;-76
2023/06/10 02:59:20;;;;;;;9.23;7.25;;;16.60;94.00;;;;;;5014674;28;20358;-75
2023/06/10 03:01:46;;;;;;;7.97;7.10;;;16.60;94.10;;;;;;5027157;28;20025;-75
2023/06/10 03:04:13;;;;;;;11.38;8.10;;;16.60;94.30;;;;;;5034248;28;20117;-75
2023/06/10 03:06:40;;;;;;;10.23;7.75;;;16.60;94.30;;;;;;5034248;28;20022;-75
2023/06/10 03:09:10;;;;;;;9.98;8.18;;;16.60;94.40;;;;;;5027684;28;20084;-75
2023/06/10 03:11:35;;;;;;;10.07;7.60;;;16.50;94.50;;;;;;5013369;28;20026;-75
2023/06/10 03:14:01;;;;;;;8.55;7.03;;;16.50;94.60;;;;;;5014475;28;20021;-76
2023/06/10 03:16:27;;;;;;;8.90;7.00;;;16.50;94.70;;;;;;5027877;28;20151;-76
2023/06/10 03:18:53;;;;;;;9.32;7.55;;;16.50;94.70;;;;;;5015842;28;20029;-74
2023/06/10 03:21:19;;;;;;;7.85;6.93;;;16.50;94.70;;;;;;5021358;28;20029;-76
2023/06/10 03:23:45;;;;;;;10.05;7.05;;;16.40;94.80;;;;;;5034442;28;20365;-74
2023/06/10 03:26:12;;;;;;;10.85;7.10;;;16.40;94.90;;;;;;5034211;28;20519;-75
2023/06/10 03:28:38;;;;;;;10.05;7.68;;;16.40;94.90;;;;;;5033358;28;20025;-75
2023/06/10 03:31:03;;;;;;;9.00;7.28;;;16.30;95.00;;;;;;5032779;28;20473;-74
2023/06/10 03:33:29;;;;;;;8.52;7.63;;;16.30;95.20;;;;;;5033954;28;20017;-73
2023/06/10 03:35:55;;;;;;;11.35;7.57;;;16.30;95.30;;;;;;5033250;28;20021;-74
2023/06/10 03:38:21;;;;;;;9.10;7.55;;;16.20;95.40;;;;;;5034142;28;20519;-75
2023/06/10 03:40:47;;;;;;;9.40;7.30;;;16.20;95.40;;;;;;5033918;28;20057;-75
2023/06/10 03:43:13;;;;;;;9.40;7.28;;;16.20;95.50;;;;;;5034247;28;20105;-76
2023/06/10 03:45:38;;;;;;;11.23;8.02;;;16.20;95.60;;;;;;5030086;28;20037;-76
2023/06/10 03:48:06;;;;;;;9.73;7.10;;;16.20;95.70;;;;;;5045927;28;20029;-75
2023/06/10 03:50:31;;;;;;;11.55;8.13;;;16.20;95.90;;;;;;5028644;28;20477;-75
2023/06/10 03:52:58;;;;;;;11.07;8.10;;;16.20;95.90;;;;;;5039603;28;20030;-75
2023/06/10 03:55:23;;;;;;;11.07;8.73;;;16.20;95.90;;;;;;5014775;28;20517;-75
2023/06/10 03:57:50;;;;;;;11.43;8.25;;;16.20;95.90;;;;;;5029238;28;20048;-75
2023/06/10 04:00:17;;;;;;;9.82;8.07;;;16.20;96.00;;;;;;5033905;28;20480;-75
2023/06/10 04:02:48;;;;;;;9.32;7.57;;;16.20;96.40;;;;;;5032052;28;20033;-74
2023/06/10 04:05:14;;;;;;;9.30;7.57;;;16.10;96.30;;;;;;5034092;28;20491;-75
2023/06/10 04:07:42;;;;;;;8.95;7.10;;;16.20;96.40;;;;;;5034093;28;20116;-75
2023/06/10 04:10:08;;;;;;;8.57;7.25;;;16.20;96.50;;;;;;5033876;28;20096;-75
2023/06/10 04:12:35;;;;;;;10.07;8.00;;;16.20;96.50;;;;;;5033289;28;20037;-75
2023/06/10 04:15:01;;;;;;;9.85;7.32;;;16.20;96.60;;;;;;5033809;28;20474;-76
2023/06/10 04:17:27;;;;;;;8.75;7.70;;;16.20;97.00;;;;;;5032789;28;20073;-74
2023/06/10 04:19:54;;;;;;;9.48;7.05;;;16.20;96.70;;;;;;5033527;28;20036;-74
2023/06/10 04:22:20;;;;;;;9.02;7.15;;;16.20;96.70;;;;;;5024803;28;20030;-74
2023/06/10 04:24:46;;;;;;;10.82;8.13;;;16.30;96.80;;;;;;5014027;28;20499;-75
2023/06/10 04:27:12;;;;;;;11.02;8.18;;;16.30;96.80;;;;;;5021042;28;20036;-75
2023/06/10 04:29:38;;;;;;;8.45;6.82;;;16.40;96.70;;;;;;5033050;28;20021;-73
2023/06/10 04:32:06;;;;;;;9.45;7.20;;;16.40;96.60;;;;;;5034809;28;20013;-74
2023/06/10 04:34:33;;;;;;;11.52;7.72;;;16.50;96.60;;;;;;5022982;28;20026;-73
2023/06/10 04:36:59;;;;;;;9.35;7.18;;;16.50;96.60;;;;;;5030573;28;20022;-74
2023/06/10 04:39:24;;;;;;;9.45;6.68;;;16.60;96.50;;;;;;5023916;28;20037;-75
2023/06/10 04:41:50;;;;;;;9.50;6.93;;;16.60;96.70;;;;;;5033036;28;20029;-74
2023/06/10 04:44:16;;;;;;;9.38;7.18;;;16.70;96.40;;;;;;5032984;28;20040;-74
2023/06/10 04:46:41;;;;;;;8.18;6.72;;;16.80;96.40;;;;;;5034412;28;20388;-74
2023/06/10 04:49:07;;;;;;;10.18;7.03;;;16.90;96.30;;;;;;5034342;28;20068;-74
2023/06/10 04:51:33;;;;;;;7.70;6.38;;;17.00;96.10;;;;;;5030493;28;20050;-73
2023/06/10 04:54:03;;;;;;;8.32;6.75;;;17.10;96.00;;;;;;5019161;28;20108;-74
2023/06/10 04:56:30;;;;;;;10.48;6.25;;;17.20;95.80;;;;;;5032409;28;20087;-73
2023/06/10 04:58:56;;;;;;;11.55;7.18;;;17.30;95.50;;;;;;5025829;28;20071;-73
2023/06/10 05:01:22;;;;;;;8.80;6.88;;;17.50;95.30;;;;;;5035006;28;20112;-73
2023/06/10 05:03:48;;;;;;;8.13;6.88;;;17.60;95.10;;;;;;5026079;28;20463;-75
2023/06/10 05:06:13;;;;;;;9.10;6.18;;;17.70;94.90;;;;;;5030366;28;20112;-74
2023/06/10 05:08:39;;;;;;;7.63;6.25;;;17.80;94.70;;;;;;5025926;28;20033;-72
2023/06/10 05:11:04;;;;;;;8.27;6.53;;;17.90;94.50;;;;;;5021311;28;20032;-73
2023/06/10 05:13:30;;;;;;;8.52;6.38;;;18.00;94.30;;;;;;5029920;28;20025;-74
2023/06/10 05:15:58;;;;;;;10.68;6.65;;;18.20;94.10;;;;;;5028047;28;20515;-74
2023/06/10 05:18:24;;;;;;;8.30;6.15;;;18.20;93.80;;;;;;5023255;28;20025;-74
2023/06/10 05:20:49;;;;;;;11.70;7.10;;;18.30;93.70;;;;;;5024446;28;20083;-74
2023/06/10 05:23:15;;;;;;;9.07;6.43;;;18.40;93.60;;;;;;5027078;28;20487;-73
2023/06/10 05:25:42;;;;;;;9.02;6.30;;;18.50;93.60;;;;;;5025947;28;20033;-74
2023/06/10 05:28:09;;;;;;;8.38;6.93;;;18.50;93.50;;;;;;5028736;28;20018;-73
2023/06/10 05:30:36;;;;;;;8.38;6.32;;;18.50;93.30;;;;;;5028805;28;20018;-73
2023/06/10 05:33:02;;;;;;;7.13;6.38;;;18.50;93.10;;;;;;5032568;28;20109;-73
2023/06/10 05:35:28;;;;;;;8.65;6.45;;;18.60;93.10;;;;;;5030057;28;20741;-72
2023/06/10 05:37:54;;;;;;;7.80;6.00;;;18.60;92.90;;;;;;5034842;28;20085;-76
2023/06/10 05:40:20;;;;;;;9.70;6.30;;;18.70;92.80;;;;;;5030850;28;20137;-73
2023/06/10 05:42:45;;;;;;;7.65;6.25;;;18.70;92.90;;;;;;5027811;28;20112;-71
2023/06/10 05:45:11;;;;;;;9.25;7.53;;;18.80;92.50;;;;;;5025902;28;20040;-71
2023/06/10 05:47:37;;;;;;;8.77;6.63;;;18.80;92.60;;;;;;5028955;28;20064;-73
2023/06/10 05:50:06;;;;;;;8.52;7.13;;;18.90;92.50;;;;;;5025502;28;20035;-73
2023/06/10 05:52:35;;;;;;;14.55;7.53;;;19.00;92.40;;;;;;5028719;28;20109;-73
2023/06/10 05:55:04;;;;;;;9.73;7.85;;;19.10;92.20;;;;;;5027218;28;20632;-72
2023/06/10 05:57:30;;;;;;;10.10;7.68;;;19.00;91.90;;;;;;5028258;28;20036;-74
2023/06/10 05:59:56;;;;;;;9.68;7.55;;;19.20;91.80;;;;;;5026606;28;20029;-73
2023/06/10 06:02:21;;;;;;;12.57;8.18;;;19.30;91.60;;;;;;5026360;28;20527;-73
2023/06/10 06:04:47;;;;;;;10.50;7.65;;;19.40;91.30;;;;;;5026678;28;20032;-73
2023/06/10 06:07:13;;;;;;;13.80;8.55;;;19.40;91.30;;;;;;5028583;28;20087;-72
2023/06/10 06:09:38;;;;;;;11.60;8.13;;;19.50;91.10;;;;;;5025283;28;20488;-73
2023/06/10 06:12:06;;;;;;;9.98;7.55;;;19.60;91.20;;;;;;5023712;28;20022;-73
2023/06/10 06:14:32;;;;;;;11.55;7.90;;;19.70;91.10;;;;;;5026926;28;20022;-73
2023/06/10 06:16:58;;;;;;;9.55;8.27;;;19.80;91.00;;;;;;5033647;28;20086;-74
2023/06/10 06:19:23;;;;;;;10.43;7.38;;;19.90;90.90;;;;;;5032064;28;20053;-74
2023/06/10 06:21:49;;;;;;;8.45;6.97;;;20.00;90.70;;;;;;5033129;28;20567;-74
2023/06/10 06:24:16;;;;;;;8.68;7.28;;;20.10;90.50;;;;;;5033011;28;20033;-74
2023/06/10 06:26:41;;;;;;;9.73;7.28;;;20.30;90.40;;;;;;5014213;28;20029;-74
2023/06/10 06:29:07;;;;;;;10.52;8.32;;;20.40;90.30;;;;;;5014036;28;20030;-74
2023/06/10 06:31:32;;;;;;;11.18;7.50;;;20.50;90.00;;;;;;5013427;28;20033;-74
2023/06/10 06:33:58;;;;;;;9.00;7.53;;;20.60;89.60;;;;;;5012609;28;20113;-75
2023/06/10 06:36:24;;;;;;;9.98;7.72;;;20.60;89.50;;;;;;5023126;28;20160;-75
2023/06/10 06:38:49;;;;;;;10.32;7.45;;;20.60;89.40;;;;;;5033299;28;20033;-74
2023/06/10 06:41:15;;;;;;;8.93;7.55;;;20.70;89.40;;;;;;5033300;28;20049;-73
2023/06/10 06:43:42;;;;;;;11.80;7.45;;;20.70;88.90;;;;;;5033066;28;20067;-74
2023/06/10 06:46:07;;;;;;;10.02;7.72;;;20.60;88.70;;;;;;5031365;28;20421;-72
2023/06/10 06:48:33;;;;;;;7.97;7.15;;;20.60;89.10;;;;;;5032478;28;20060;-70
2023/06/10 06:50:59;;;;;;;9.55;6.38;;;20.60;89.20;;;;;;5032424;28;20018;-71
2023/06/10 06:53:25;;;;;;;9.65;7.38;;;20.60;89.50;;;;;;5030612;28;20021;-71
2023/06/10 06:55:50;;;;;;;10.27;7.43;;;20.60;89.90;;;;;;5016109;28;20018;-72
2023/06/10 06:58:16;;;;;;;10.13;7.47;;;20.60;90.10;;;;;;5031249;28;20502;-72
2023/06/10 07:00:42;;;;;;;7.85;7.03;;;20.50;90.20;;;;;;5018861;28;20021;-72
2023/06/10 07:03:08;;;;;;;9.15;7.22;;;20.60;90.30;;;;;;5030420;28;20540;-71
2023/06/10 07:05:33;;;;;;;9.13;7.70;;;20.50;90.30;;;;;;5028337;28;20102;-72
2023/06/10 07:07:59;;;;;;;8.82;6.72;;;20.50;90.40;;;;;;5030656;28;20026;-72
2023/06/10 07:10:25;;;;;;;9.40;7.18;;;20.50;90.40;;;;;;5020717;28;20037;-72
2023/06/10 07:12:52;;;;;;;9.15;7.45;;;20.50;90.50;;;;;;5026501;28;20456;-73
2023/06/10 07:15:18;;;;;;;9.30;7.53;;;20.50;90.70;;;;;;5030327;28;20037;-73
2023/06/10 07:17:44;;;;;;;10.30;7.75;;;20.60;91.30;;;;;;5030926;28;20029;-73
2023/06/10 07:20:10;;;;;;;9.35;7.78;;;20.50;91.20;;;;;;5028795;28;20362;-72
2023/06/10 07:22:35;;;;;;;9.55;7.80;;;20.50;91.20;;;;;;5029016;28;20025;-72
2023/06/10 07:25:01;;;;;;;8.55;7.22;;;20.50;91.30;;;;;;5015175;28;20029;-71
2023/06/10 07:27:27;;;;;;;12.23;7.75;;;20.50;91.40;;;;;;5025812;28;20029;-72
2023/06/10 07:29:53;;;;;;;7.93;7.07;;;20.60;91.40;;;;;;5028826;28;20087;-72
2023/06/10 07:32:22;;;;;;;8.13;6.78;;;20.60;91.20;;;;;;5032000;28;20026;-71
2023/06/10 07:34:47;;;;;;;11.98;7.63;;;20.70;91.30;;;;;;5020019;28;20049;-72
2023/06/10 07:37:13;;;;;;;11.07;7.10;;;20.80;91.30;;;;;;5030468;28;20368;-71
2023/06/10 07:39:38;;;;;;;8.13;7.10;;;20.80;91.30;;;;;;5028396;28;20108;-72
2023/06/10 07:42:05;;;;;;;7.68;6.53;;;20.80;91.30;;;;;;5029641;28;20026;-72
2023/06/10 07:44:30;;;;;;;9.65;6.88;;;20.90;91.30;;;;;;5031500;28;20037;-72
2023/06/10 07:46:57;;;;;;;7.95;6.75;;;20.90;91.20;;;;;;5028392;28;20041;-72
2023/06/10 07:49:23;;;;;;;7.10;6.30;;;20.90;91.20;;;;;;5028268;28;20087;-73
2023/06/10 07:51:50;;;;;;;11.82;6.57;;;21.00;91.20;;;;;;5031162;28;20472;-71
2023/06/10 07:54:16;;;;;;;7.85;6.07;;;21.10;91.10;;;;;;5011632;28;20171;-72
2023/06/10 07:56:41;;;;;;;9.75;6.38;;;21.20;91.00;;;;;;5031274;28;20100;-71
2023/06/10 07:59:07;;;;;;;10.18;6.25;;;21.30;90.90;;;;;;5024141;28;20022;-72
2023/06/10 08:01:33;;;;;;;8.30;5.85;;;21.40;90.70;;;;;;5026882;28;20028;-72
2023/06/10 08:03:58;;;;;;;6.85;5.50;;;21.50;90.60;;;;;;5027648;28;20017;-72
2023/06/10 08:06:24;;;;;;;7.43;5.88;;;21.50;90.60;;;;;;5029248;28;20354;-71
2023/06/10 08:08:50;;;;;;;8.40;5.63;;;21.60;90.40;;;;;;5023121;28;20040;-73
2023/06/10 08:11:15;;;;;;;7.00;5.63;;;21.70;90.20;;;;;;5028294;28;20027;-73
2023/06/10 08:13:41;;;;;;;8.32;6.30;;;21.70;90.30;;;;;;5026868;28;20057;-71
2023/06/10 08:16:07;;;;;;;7.90;6.43;;;21.90;90.50;;;;;;5026229;28;20022;-73
2023/06/10 08:18:33;;;;;;;8.75;6.45;;;22.00;90.10;;;;;;5036639;28;20079;-71
2023/06/10 08:20:59;;;;;;;8.45;5.93;;;22.10;89.80;;;;;;5020442;28;20093;-72
2023/06/10 08:23:25;;;;;;;8.27;5.68;;;22.10;89.80;;;;;;5019313;28;20109;-72
2023/06/10 08:25:51;;;;;;;8.80;6.72;;;22.20;89.50;;;;;;5021511;28;20030;-72
2023/06/10 08:28:16;;;;;;;6.85;6.15;;;22.30;88.90;;;;;;5024911;28;20018;-72
2023/06/10 08:30:42;;;;;;;8.48;6.32;;;22.30;88.90;;;;;;5027295;28;20032;-72
2023/06/10 08:33:08;;;;;;;7.45;5.85;;;22.40;88.70;;;;;;5028574;28;20373;-71
2023/06/10 08:35:33;;;;;;;8.43;5.45;;;22.50;88.90;;;;;;5030959;28;20017;-72
2023/06/10 08:37:59;;;;;;;11.57;5.97;;;22.60;88.60;;;;;;5032652;28;20034;-71
2023/06/10 08:40:25;;;;;;;7.05;5.53;;;22.60;88.20;;;;;;5025562;28;20112;-72
2023/06/10 08:43:14;;;;;;;8.25;6.00;;;22.60;88.10;;;;;;5031624;28;20030;-71
2023/06/10 08:45:43;;;;;;;7.15;5.57;;;22.60;88.30;;;;;;5031936;28;20408;-71
2023/06/10 08:48:10;;;;;;;6.90;6.20;;;22.70;87.80;;;;;;5034621;28;20028;-72
2023/06/10 08:50:37;;;;;;;7.72;6.28;;;22.80;87.40;;;;;;5035132;28;20382;-72
2023/06/10 08:53:06;;;;;;;7.85;5.40;;;22.80;87.10;;;;;;5036135;28;20018;-71
2023/06/10 08:55:46;;;;;;;7.88;5.20;;;22.90;87.30;;;;;;5035481;28;20028;-72
2023/06/10 08:58:13;;;;;;;6.10;5.50;;;23.10;87.10;;;;;;5034835;28;20029;-71
2023/06/10 09:00:39;;;;;;;6.78;5.78;;;23.20;86.50;;;;;;5034959;28;20033;-71
2023/06/10 09:03:08;;;;;;;7.20;5.05;;;23.20;86.20;;;;;;5026499;28;20030;-71
2023/06/10 09:05:36;;;;;;;6.78;5.20;;;23.20;86.00;;;;;;5025268;28;20021;-71
2023/06/10 09:08:02;;;;;;;5.53;4.93;;;23.20;86.00;;;;;;5034471;28;20100;-70
2023/06/10 09:10:29;;;;;;;5.70;4.28;;;23.30;85.80;;;;;;5034344;28;20396;-71
2023/06/10 09:12:55;;;;;;;6.57;5.00;;;23.40;85.60;;;;;;5034342;28;20097;-70
2023/06/10 09:15:21;;;;;;;5.20;4.70;;;23.50;85.00;;;;;;5031460;28;20021;-71
2023/06/10 09:17:47;;;;;;;6.90;4.80;;;23.60;84.50;;;;;;5030910;28;20105;-72
2023/06/10 09:20:12;;;;;;;6.30;3.53;;;23.70;84.50;;;;;;5028689;28;20025;-71
2023/06/10 09:22:38;;;;;;;3.92;3.53;;;23.80;80.80;;;;;;5029265;28;21100;-71
2023/06/10 09:25:10;;;;;;;6.97;3.42;;;23.90;79.50;;;;;;5026022;28;20135;-71
2023/06/10 09:27:50;;;;;;;4.07;3.67;;;24.10;80.10;;;;;;5028702;28;20145;-71
2023/06/10 09:30:34;;;;;;;4.40;3.70;;;24.20;78.10;;;;;;5028018;28;20099;-71
2023/06/10 09:33:02;;;;;;;5.40;3.63;;;24.40;77.80;;;;;;5029830;28;20468;-72
2023/06/10 09:35:30;;;;;;;5.15;3.50;;;24.50;77.70;;;;;;5021599;28;20045;-71
2023/06/10 09:38:02;;;;;;;3.40;3.10;;;24.60;77.30;;;;;;5029803;28;20057;-73
2023/06/10 09:40:28;;;;;;;4.38;3.47;;;24.60;77.20;;;;;;5030704;28;20443;-73
2023/06/10 09:43:00;;;;;;;4.03;2.72;;;24.70;76.60;;;;;;5031251;28;20079;-73
2023/06/10 09:45:32;;;;;;;4.18;3.40;;;24.70;75.00;;;;;;5025908;28;20033;-73
2023/06/10 09:47:58;;;;;;;3.38;2.92;;;24.70;73.30;;;;;;5027223;28;20029;-72
2023/06/10 09:50:23;;;;;;;3.88;2.83;;;24.70;73.40;;;;;;5030124;28;20037;-73
2023/06/10 09:52:50;;;;;;;5.50;3.05;;;24.70;73.30;;;;;;5030458;28;20088;-75
2023/06/10 09:55:17;;;;;;;3.78;3.00;;;24.80;73.30;;;;;;5030998;28;20084;-74
2023/06/10 09:57:47;;;;;;;3.28;2.97;;;24.90;72.90;;;;;;5029707;28;20084;-73
2023/06/10 10:00:13;;;;;;;4.20;3.05;;;25.00;73.10;;;;;;5031581;28;20036;-73
2023/06/10 10:02:51;;;;;;;3.55;3.03;;;25.10;72.00;;;;;;5030590;28;20492;-73
2023/06/10 10:05:18;;;;;;;5.57;3.42;;;25.10;73.30;;;;;;5029542;28;20117;-73
2023/06/10 10:07:45;;;;;;;4.63;3.42;;;25.10;73.30;;;;;;5027446;28;20049;-73
2023/06/10 10:10:13;;;;;;;5.13;3.83;;;25.10;73.00;;;;;;5029429;28;20034;-73
2023/06/10 10:12:39;;;;;;;3.67;3.00;;;25.00;72.90;;;;;;5026914;28;20025;-74
2023/06/10 10:15:11;;;;;;;3.53;3.03;;;25.00;72.90;;;;;;5031350;28;20029;-74
2023/06/10 10:18:05;;;;;;;5.95;3.40;;;24.90;73.10;;;;;;5029406;28;20060;-73
2023/06/10 10:20:34;;;;;;;4.43;3.40;;;24.90;73.30;;;;;;5019571;28;20045;-73
2023/06/10 10:23:03;;;;;;;5.50;3.35;;;24.90;73.20;;;;;;5030079;28;20037;-73
2023/06/10 10:25:38;;;;;;;5.75;4.13;;;24.90;72.90;;;;;;5026623;28;20022;-73
2023/06/10 10:28:03;;;;;;;9.25;4.25;;;25.00;72.70;;;;;;5031114;28;20121;-72
2023/06/10 10:30:34;;;;;;;5.63;3.88;;;25.00;73.10;;;;;;5026536;28;20380;-72
2023/06/10 10:33:16;;;;;;;3.63;3.28;;;24.90;73.50;;;;;;5031335;28;20365;-72
2023/06/10 10:35:43;;;;;;;6.55;4.53;;;24.80;73.70;;;;;;5028128;28;20014;-71
2023/06/10 10:38:09;;;;;;;4.85;4.35;;;24.80;73.90;;;;;;5031604;28;20096;-75
2023/06/10 10:40:36;;;;;;;5.05;3.80;;;24.70;73.80;;;;;;5034784;28;20052;-75
2023/06/10 10:43:03;;;;;;;7.70;3.92;;;24.60;73.90;;;;;;5026231;28;20036;-70
2023/06/10 10:45:29;;;;;;;4.95;3.78;;;24.60;74.10;;;;;;5027653;28;20039;-70
2023/06/10 10:47:56;;;;;;;4.90;3.70;;;24.50;74.00;;;;;;5028493;28;20057;-71
2023/06/10 10:50:22;;;;;;;6.88;5.05;;;24.50;74.00;;;;;;5031327;28;20025;-70
2023/06/10 10:53:05;;;;;;;8.80;4.25;;;24.60;73.70;;;;;;5020187;28;20584;-74
2023/06/10 10:55:31;;;;;;;6.18;4.18;;;24.60;74.50;;;;;;5025405;28;20048;-75
2023/06/10 10:58:07;;;;;;;5.60;3.67;;;24.70;74.60;;;;;;5026485;28;20041;-74
2023/06/10 11:00:54;;;;;;;4.57;4.13;;;24.70;74.00;;;;;;5025848;28;20060;-74
2023/06/10 11:03:20;;;;;;;4.35;3.85;;;24.90;73.60;;;;;;5029119;28;20040;-73
2023/06/10 11:05:48;;;;;;;4.78;3.83;;;24.90;73.30;;;;;;5023774;28;20025;-77
2023/06/10 11:08:15;;;;;;;4.63;3.80;;;25.00;72.90;;;;;;5024857;28;20021;-74
2023/06/10 11:10:52;;;;;;;5.05;3.63;;;25.00;73.40;;;;;;5025175;28;20030;-73
2023/06/10 11:13:20;;;;;;;5.32;4.10;;;24.90;73.50;;;;;;5026634;28;20033;-73
2023/06/10 11:15:47;;;;;;;4.38;3.90;;;24.90;74.00;;;;;;5027234;28;20018;-74
2023/06/10 11:18:20;;;;;;;6.20;4.05;;;24.90;73.90;;;;;;5029723;28;20150;-74
2023/06/10 11:20:49;;;;;;;7.97;4.17;;;25.00;74.10;;;;;;5029570;28;20083;-75
2023/06/10 11:23:30;;;;;;;4.47;3.92;;;25.00;73.10;;;;;;5029071;28;20056;-75
2023/06/10 11:26:34;;;;;;;4.88;4.30;;;25.00;73.10;;;;;;5030053;28;20575;-75
2023/06/10 11:28:59;;;;;;;5.65;4.22;;;25.00;73.10;;;;;;5028501;28;20030;-75
2023/06/10 11:31:28;;;;;;;7.35;4.25;;;25.00;73.20;;;;;;5027632;28;20036;-75
2023/06/10 11:33:54;;;;;;;5.45;4.10;;;25.00;73.50;;;;;;5030257;28;20026;-76
2023/06/10 11:36:24;;;;;;;4.22;3.83;;;25.10;73.60;;;;;;5030772;28;20044;-75
2023/06/10 11:39:17;;;;;;;3.85;3.42;;;25.10;73.50;;;;;;5030083;28;20029;-75
2023/06/10 11:41:43;;;;;;;3.70;3.30;;;25.20;73.00;;;;;;5024099;28;20116;-75
2023/06/10 11:44:11;;;;;;;5.20;4.22;;;25.30;72.40;;;;;;5029733;28;20467;-75
2023/06/10 11:46:37;;;;;;;7.88;3.63;;;25.30;72.00;;;;;;5028853;28;20037;-75
2023/06/10 11:49:05;;;;;;;3.92;3.22;;;25.40;71.00;;;;;;5024896;28;20029;-75
2023/06/10 11:51:41;;;;;;;6.05;4.10;;;25.40;71.20;;;;;;5029346;28;20021;-75
2023/06/10 11:54:09;;;;;;;4.90;3.72;;;25.40;71.40;;;;;;5029463;28;20037;-75
2023/06/10 11:56:34;;;;;;;3.65;3.35;;;25.40;71.80;;;;;;5025794;28;20033;-75
2023/06/10 11:59:06;;;;;;;5.45;3.90;;;25.30;72.00;;;;;;5026576;28;20653;-75
2023/06/10 12:01:33;;;;;;;3.92;3.53;;;25.30;71.90;;;;;;5029004;28;20026;-75
2023/06/10 12:04:03;;;;;;;4.25;3.80;;;25.30;72.00;;;;;;5023729;28;20025;-75
2023/06/10 12:06:39;;;;;;;4.72;3.70;;;25.20;72.30;;;;;;5027187;28;20037;-75
2023/06/10 12:09:05;;;;;;;5.78;4.20;;;25.30;72.60;;;;;;5031175;28;20060;-75
2023/06/10 12:11:31;;;;;;;5.50;4.10;;;25.30;72.50;;;;;;5027839;28;20113;-75
2023/06/10 12:13:57;;;;;;;4.50;3.85;;;25.30;72.10;;;;;;5033194;28;20138;-75
2023/06/10 12:16:22;;;;;;;5.38;3.72;;;25.30;71.90;;;;;;5033301;28;20028;-75
2023/06/10 12:18:48;;;;;;;3.72;3.40;;;25.30;72.00;;;;;;5033749;28;20053;-76
2023/06/10 12:21:23;;;;;;;5.60;3.72;;;25.30;72.10;;;;;;5032467;28;20030;-76
2023/06/10 12:24:01;;;;;;;4.25;3.85;;;25.30;72.30;;;;;;5032988;28;20026;-77
2023/06/10 12:26:47;;;;;;;4.97;3.47;;;25.30;72.40;;;;;;5030597;28;20508;-76
2023/06/10 12:29:29;;;;;;;4.00;3.60;;;25.40;72.70;;;;;;5033062;28;20025;-76
2023/06/10 12:32:07;;;;;;;5.10;3.70;;;25.40;72.20;;;;;;5028835;28;20026;-76
2023/06/10 12:34:37;;;;;;;4.72;3.58;;;25.40;71.50;;;;;;5034049;28;20018;-75
2023/06/10 12:37:05;;;;;;;4.05;3.65;;;25.50;71.30;;;;;;5035983;28;20049;-75
2023/06/10 12:39:32;;;;;;;6.22;4.28;;;25.50;71.00;;;;;;5035388;28;20040;-76
2023/06/10 12:41:59;;;;;;;5.03;3.83;;;25.60;71.00;;;;;;5034732;28;20029;-75
2023/06/10 12:44:36;;;;;;;7.00;4.00;;;25.60;71.00;;;;;;5035503;28;20063;-75
2023/06/10 12:47:12;;;;;;;4.35;3.80;;;25.70;71.90;;;;;;5037012;28;20017;-71